createdAt,value
2023-02-12T00:04:29.643Z,29.6
2023-02-12T00:10:06.559Z,29.6
2023-02-12T00:15:44.017Z,29.6
2023-02-12T00:20:51.094Z,29.5
2023-02-12T00:26:29.286Z,29.5
2023-02-12T00:32:08.817Z,29.4
2023-02-12T00:37:31.468Z,29.4
2023-02-12T00:43:09.221Z,29.4
2023-02-12T00:48:47.171Z,29.3
2023-02-12T00:54:27.880Z,29.3
2023-02-12T01:00:05.128Z,29.3
2023-02-12T01:05:43.471Z,29.3
2023-02-12T01:11:20.617Z,29.3
2023-02-12T01:16:58.575Z,29.2
2023-02-12T01:22:37.158Z,29.2
2023-02-12T01:27:59.884Z,29.2
2023-02-12T01:33:39.160Z,29.1
2023-02-12T01:39:20.635Z,29.1
2023-02-12T01:44:58.140Z,29.1
2023-02-12T01:50:35.577Z,29.1
2023-02-12T01:56:13.787Z,29
2023-02-12T02:01:51.341Z,29
2023-02-12T02:07:29.426Z,29
2023-02-12T02:12:51.927Z,28.9
2023-02-12T02:18:29.402Z,28.9
2023-02-12T02:24:07.438Z,28.9
2023-02-12T02:29:44.077Z,28.9
2023-02-12T02:35:21.933Z,28.9
2023-02-12T02:41:14.253Z,28.8
2023-02-12T02:46:51.941Z,28.8
2023-02-12T02:52:29.601Z,28.8
2023-02-12T02:58:08.248Z,28.8
2023-02-12T03:03:15.453Z,28.8
2023-02-12T03:08:53.756Z,28.7
2023-02-12T03:14:31.683Z,28.7
2023-02-12T03:20:09.099Z,28.7
2023-02-12T03:25:30.511Z,28.7
2023-02-12T03:30:52.879Z,28.6
2023-02-12T03:36:29.968Z,28.6
2023-02-12T03:42:06.846Z,28.6
2023-02-12T03:47:44.608Z,28.6
2023-02-12T03:53:21.446Z,28.5
2023-02-12T03:58:58.807Z,28.5
2023-02-12T04:04:37.585Z,28.5
2023-02-12T04:10:13.788Z,28.4
2023-02-12T04:15:51.439Z,28.4
2023-02-12T04:21:31.084Z,28.4
2023-02-12T04:27:08.430Z,28.4
2023-02-12T04:32:47.553Z,28.4
2023-02-12T04:38:25.131Z,28.4
2023-02-12T04:43:45.614Z,28.3
2023-02-12T04:49:23.176Z,28.3
2023-02-12T04:55:00.391Z,28.3
2023-02-12T05:00:36.925Z,28.3
2023-02-12T05:06:18.967Z,28.3
2023-02-12T05:11:40.207Z,28.3
2023-02-12T05:17:17.683Z,28.2
2023-02-12T05:22:39.551Z,28.2
2023-02-12T05:28:01.303Z,28.2
2023-02-12T05:33:39.829Z,28.2
2023-02-12T05:39:17.600Z,28.2
2023-02-12T05:44:39.784Z,28.1
2023-02-12T05:50:00.700Z,28.1
2023-02-12T05:55:40.107Z,28.1
2023-02-12T06:01:18.106Z,28.1
2023-02-12T06:06:54.983Z,28.1
2023-02-12T06:12:16.119Z,28.1
2023-02-12T06:17:56.331Z,28
2023-02-12T06:23:17.437Z,28
2023-02-12T06:28:38.971Z,27.9
2023-02-12T06:34:16.832Z,27.9
2023-02-12T06:39:53.815Z,27.9
2023-02-12T06:45:15.357Z,27.9
2023-02-12T06:50:53.831Z,27.9
2023-02-12T06:56:18.423Z,27.9
2023-02-12T07:01:56.569Z,27.9
2023-02-12T07:07:19.242Z,27.9
2023-02-12T07:28:06.526Z,27.8
2023-02-12T07:33:44.018Z,27.8
2023-02-12T07:39:21.082Z,27.8
2023-02-12T07:44:42.397Z,27.8
2023-02-12T07:50:19.570Z,27.7
2023-02-12T07:55:42.157Z,27.7
2023-02-12T08:01:03.062Z,27.7
2023-02-12T08:06:40.628Z,27.7
2023-02-12T08:12:18.628Z,27.6
2023-02-12T08:17:56.331Z,27.6
2023-02-12T08:23:47.466Z,27.6
2023-02-12T08:29:25.425Z,27.6
2023-02-12T08:35:03.380Z,27.6
2023-02-12T08:40:40.868Z,27.6
2023-02-12T08:46:02.763Z,27.6
2023-02-12T08:51:24.939Z,27.5
2023-02-12T08:57:02.592Z,27.5
2023-02-12T09:02:40.374Z,27.5
2023-02-12T09:08:17.035Z,27.5
2023-02-12T09:13:38.351Z,27.4
2023-02-12T09:19:16.539Z,27.4
2023-02-12T09:24:54.599Z,27.4
2023-02-12T09:30:30.895Z,27.4
2023-02-12T09:35:53.724Z,27.4
2023-02-12T09:41:15.780Z,27.4
2023-02-12T09:46:54.468Z,27.4
2023-02-12T09:52:31.429Z,27.3
2023-02-12T09:58:11.569Z,27.3
2023-02-12T10:03:55.713Z,27.3
2023-02-12T10:09:31.467Z,27.3
2023-02-12T10:15:12.938Z,27.3
2023-02-12T10:20:51.902Z,27.3
2023-02-12T10:26:37.718Z,27.3
2023-02-12T10:32:03.245Z,27.3
2023-02-12T10:37:24.711Z,27.2
2023-02-12T10:43:02.287Z,27.2
2023-02-12T10:48:41.151Z,27.2
2023-02-12T10:54:19.797Z,27.2
2023-02-12T10:59:58.198Z,27.2
2023-02-12T11:05:36.343Z,27.1
2023-02-12T11:11:13.079Z,27.1
2023-02-12T11:16:52.456Z,27.1
2023-02-12T11:22:31.275Z,27.1
2023-02-12T11:28:09.156Z,27.1
2023-02-12T11:33:32.609Z,27.1
2023-02-12T11:39:13.952Z,27.1
2023-02-12T11:44:51.205Z,27
2023-02-12T11:50:27.810Z,27
2023-02-12T11:55:35.092Z,27
2023-02-12T12:00:56.951Z,27
2023-02-12T12:06:35.033Z,26.9
2023-02-12T12:12:13.214Z,26.9
2023-02-12T12:17:36.332Z,26.9
2023-02-12T12:23:13.204Z,26.9
2023-02-12T12:28:50.060Z,26.9
2023-02-12T12:34:12.033Z,26.9
2023-02-12T12:39:48.450Z,26.9
2023-02-12T12:45:26.095Z,26.9
2023-02-12T12:51:04.469Z,26.8
2023-02-12T12:56:26.803Z,26.8
2023-02-12T13:02:04.836Z,26.8
2023-02-12T13:07:43.607Z,26.8
2023-02-12T13:13:20.969Z,26.8
2023-02-12T13:18:58.845Z,26.8
2023-02-12T13:24:21.838Z,26.8
2023-02-12T13:30:01.101Z,26.8
2023-02-12T13:35:47.511Z,26.7
2023-02-12T13:40:56.949Z,26.7
2023-02-12T13:46:19.445Z,26.5
2023-02-12T13:51:41.988Z,26.1
2023-02-12T13:57:03.968Z,25.9
2023-02-12T14:02:26.717Z,25.9
2023-02-12T14:07:50.440Z,25.8
2023-02-12T14:13:14.805Z,25.8
2023-02-12T14:18:39.365Z,25.7
2023-02-12T14:24:01.805Z,25.6
2023-02-12T14:29:23.763Z,25.6
2023-02-12T14:34:31.663Z,25.6
2023-02-12T14:39:52.757Z,25.3
2023-02-12T14:45:14.386Z,24.7
2023-02-12T14:50:36.872Z,24.1
2023-02-12T14:55:59.269Z,23.5
2023-02-12T15:01:22.435Z,23.3
2023-02-12T15:07:00.199Z,22.9
2023-02-12T15:12:07.241Z,22.4
2023-02-12T15:17:45.181Z,21.9
2023-02-12T15:23:22.711Z,21.4
2023-02-12T15:28:59.955Z,21.1
2023-02-12T15:34:40.981Z,20.8
2023-02-12T15:40:25.642Z,20.6
2023-02-12T15:45:33.670Z,20.4
2023-02-12T15:51:11.533Z,20.2
2023-02-12T15:56:48.896Z,20.1
2023-02-12T16:01:41.883Z,20
2023-02-12T16:07:04.084Z,19.9
2023-02-12T16:12:25.671Z,19.8
2023-02-12T16:17:48.467Z,19.8
2023-02-12T16:23:09.262Z,19.7
2023-02-12T16:28:47.959Z,19.7
2023-02-12T16:34:26.715Z,19.6
2023-02-12T16:40:03.270Z,19.6
2023-02-12T16:45:41.620Z,19.6
2023-02-12T16:51:20.097Z,19.6
2023-02-12T16:56:57.469Z,19.6
2023-02-12T17:02:04.984Z,19.6
2023-02-12T17:07:43.688Z,19.5
2023-02-12T17:13:06.655Z,19.5
2023-02-12T17:18:43.312Z,19.5
2023-02-12T17:24:20.961Z,19.4
2023-02-12T17:29:43.118Z,19.4
2023-02-12T17:35:20.379Z,19.4
2023-02-12T17:40:58.800Z,19.3
2023-02-12T17:46:37.195Z,19.3
2023-02-12T17:52:15.541Z,19.3
2023-02-12T17:57:52.921Z,19.3
2023-02-12T18:03:15.332Z,19.2
2023-02-12T18:08:38.090Z,19.2
2023-02-12T18:14:00.956Z,19.2
2023-02-12T18:19:37.550Z,19.1
2023-02-12T18:25:14.829Z,19.1
2023-02-12T18:30:52.499Z,18.8
2023-02-12T18:36:31.133Z,18.6
2023-02-12T18:41:53.308Z,18.4
2023-02-12T18:47:31.728Z,18.4
2023-02-12T18:53:10.451Z,18.3
2023-02-12T18:58:48.725Z,18.2
2023-02-12T19:04:12.217Z,17.6
2023-02-12T19:14:57.872Z,16.7
2023-02-12T19:20:04.623Z,16.5
2023-02-12T19:26:07.220Z,16.3
2023-02-12T19:31:32.200Z,16.2
2023-02-12T19:36:54.459Z,16
2023-02-12T19:42:17.811Z,15.9
2023-02-12T19:47:41.889Z,15.8
2023-02-12T19:53:04.725Z,15.7
2023-02-12T19:58:26.812Z,15.6
2023-02-12T20:03:33.480Z,15.6
2023-02-12T20:08:25.309Z,15.5
2023-02-12T20:13:32.172Z,15.4
2023-02-12T20:18:39.816Z,15.8
2023-02-12T20:24:04.748Z,16.2
2023-02-12T20:29:25.806Z,17.1
2023-02-12T20:34:45.715Z,18.2
2023-02-12T20:40:18.827Z,19.6
2023-02-12T20:45:40.744Z,20.9
2023-02-12T20:50:47.486Z,22.3
2023-02-12T20:56:26.499Z,23.6
2023-02-12T21:01:48.135Z,25
2023-02-12T21:07:25.699Z,26.3
2023-02-12T21:12:48.276Z,27.5
2023-02-12T21:18:34.916Z,28.1
2023-02-12T21:24:13.585Z,28.4
2023-02-12T21:29:52.043Z,28.6
2023-02-12T21:35:15.089Z,28.7
2023-02-12T21:40:52.413Z,28.8
2023-02-12T21:46:20.920Z,28.8
2023-02-12T21:51:49.667Z,28.9
2023-02-12T21:57:26.436Z,28.9
2023-02-12T22:03:03.305Z,28.8
2023-02-12T22:08:39.277Z,28.8
2023-02-12T22:14:16.656Z,28.8
2023-02-12T22:19:54.315Z,28.8
2023-02-12T22:25:31.626Z,28.8
2023-02-12T22:31:08.451Z,28.8
2023-02-12T22:36:15.385Z,28.8
2023-02-12T22:41:52.672Z,28.7
2023-02-12T22:47:31.098Z,28.7
2023-02-12T22:53:08.034Z,28.7
2023-02-12T22:58:45.347Z,28.6
2023-02-12T23:04:23.441Z,28.6
2023-02-12T23:10:15.389Z,28.6
2023-02-12T23:15:53.459Z,28.6
2023-02-12T23:21:00.857Z,28.5
2023-02-12T23:26:22.528Z,28.4
2023-02-12T23:31:45.869Z,28.4
2023-02-12T23:37:07.620Z,28.4
2023-02-12T23:42:45.309Z,28.4
2023-02-12T23:47:51.432Z,28.3
2023-02-12T23:53:13.858Z,28.3
2023-02-12T23:58:42.561Z,28.3
